Baltimore, Maryland
Traffic Map
Current Weather Conditions
Baltimore, Maryland
Overcast Moderate Fog
Overcast
45°
Feels Like: 45°
Wind Chill: 45° Ceiling: 200
Heat Index: 45° Visibility: 0.25mi
Dew Point: 45° Wind: 0mph
Humidity: 100% Direction: ° ()
Pressure: 29.89in Gusts: 0mph
Raw Report DataKBWI 180954Z 00000KT 1/4SM R10/1600V2000FT FG VV002 07/07 A2989 RMK AO2 SLP121 T00720072
Traffic Incident Summary
Active as of:
Severity:
Category:
InformationThere was an issue retrieving the traffic information for this location. Please try a different location or try again shortly.
Advertisements
Track Severe Weather on mobile